createdAt,value
2022-08-28T00:00:13.843Z,1001.60
2022-08-28T00:01:15.244Z,1001.64
2022-08-28T00:02:13.163Z,1001.58
2022-08-28T00:03:13.135Z,1001.61
2022-08-28T00:04:13.544Z,1001.62
2022-08-28T00:05:13.398Z,1001.64
2022-08-28T00:06:13.601Z,1001.63
2022-08-28T00:07:13.781Z,1001.59
2022-08-28T00:08:13.807Z,1001.61
2022-08-28T00:09:12.870Z,1001.58
2022-08-28T00:10:13.830Z,1001.62
2022-08-28T00:11:15.097Z,1001.58
2022-08-28T00:12:13.206Z,1001.59
2022-08-28T00:13:13.252Z,1001.63
2022-08-28T00:14:13.177Z,1001.62
2022-08-28T00:15:13.358Z,1001.59
2022-08-28T00:16:13.323Z,1001.63
2022-08-28T00:17:13.227Z,1001.62
2022-08-28T00:18:13.354Z,1001.65
2022-08-28T00:19:13.517Z,1001.65
2022-08-28T00:20:13.386Z,1001.66
2022-08-28T00:21:13.269Z,1001.65
2022-08-28T00:22:13.120Z,1001.66
2022-08-28T00:23:14.031Z,1001.69
2022-08-28T00:24:13.264Z,1001.66
2022-08-28T00:25:13.188Z,1001.64
2022-08-28T00:26:13.502Z,1001.69
2022-08-28T00:27:13.785Z,1001.66
2022-08-28T00:28:23.705Z,1001.69
2022-08-28T00:29:13.420Z,1001.68
2022-08-28T00:30:13.315Z,1001.67
2022-08-28T00:31:13.379Z,1001.74
2022-08-28T00:32:13.601Z,1001.70
2022-08-28T00:33:13.499Z,1001.73
2022-08-28T00:34:13.547Z,1001.75
2022-08-28T00:35:13.700Z,1001.69
2022-08-28T00:36:13.621Z,1001.68
2022-08-28T00:37:13.705Z,1001.70
2022-08-28T00:38:14.262Z,1001.72
2022-08-28T00:39:13.501Z,1001.71
2022-08-28T00:40:13.423Z,1001.70
2022-08-28T00:41:14.141Z,1001.69
2022-08-28T00:42:13.113Z,1001.69
2022-08-28T00:43:13.034Z,1001.68
2022-08-28T00:44:13.069Z,1001.68
2022-08-28T00:45:13.005Z,1001.71
2022-08-28T00:46:12.904Z,1001.67
2022-08-28T00:47:13.014Z,1001.68
2022-08-28T00:48:13.067Z,1001.69
2022-08-28T00:49:13.453Z,1001.70
2022-08-28T00:50:13.378Z,1001.67
2022-08-28T00:51:13.288Z,1001.69
2022-08-28T00:52:13.631Z,1001.67
2022-08-28T00:53:18.659Z,1001.66
2022-08-28T00:54:14.195Z,1001.69
2022-08-28T00:55:13.012Z,1001.69
2022-08-28T00:56:13.441Z,1001.71
2022-08-28T00:57:13.738Z,1001.70
2022-08-28T00:58:14.042Z,1001.65
2022-08-28T00:59:13.167Z,1001.64
2022-08-28T01:00:13.627Z,1001.73
2022-08-28T01:01:14.022Z,1001.70
2022-08-28T01:02:13.101Z,1001.69
2022-08-28T01:03:13.562Z,1001.67
2022-08-28T01:04:13.580Z,1001.72
2022-08-28T01:05:13.621Z,1001.69
2022-08-28T01:06:13.742Z,1001.67
2022-08-28T01:07:13.683Z,1001.65
2022-08-28T01:08:14.210Z,1001.71
2022-08-28T01:09:13.249Z,1001.69
2022-08-28T01:10:13.120Z,1001.71
2022-08-28T01:11:13.129Z,1001.71
2022-08-28T01:12:13.302Z,1001.72
2022-08-28T01:13:13.211Z,1001.73
2022-08-28T01:14:13.131Z,1001.69
2022-08-28T01:15:13.975Z,1001.68
2022-08-28T01:16:13.692Z,1001.71
2022-08-28T01:17:13.667Z,1001.72
2022-08-28T01:18:13.639Z,1001.71
2022-08-28T01:19:13.697Z,1001.74
2022-08-28T01:20:18.704Z,1001.73
2022-08-28T01:21:20.114Z,1001.71
2022-08-28T01:22:13.534Z,1001.76
2022-08-28T01:23:13.887Z,1001.75
2022-08-28T01:24:13.129Z,1001.75
2022-08-28T01:25:13.987Z,1001.74
2022-08-28T01:26:12.864Z,1001.75
2022-08-28T01:27:13.776Z,1001.72
2022-08-28T01:28:13.857Z,1001.70
2022-08-28T01:29:13.216Z,1001.73
2022-08-28T01:30:13.080Z,1001.74
2022-08-28T01:31:13.343Z,1001.74
2022-08-28T01:32:13.658Z,1001.72
2022-08-28T01:33:13.698Z,1001.70
2022-08-28T01:34:13.928Z,1001.69
2022-08-28T01:35:12.743Z,1001.69
2022-08-28T01:36:13.792Z,1001.73
2022-08-28T01:37:14.280Z,1001.71
2022-08-28T01:38:14.207Z,1001.76
2022-08-28T01:39:13.587Z,1001.75
2022-08-28T01:40:13.440Z,1001.79
2022-08-28T01:41:13.384Z,1001.85
2022-08-28T01:42:13.420Z,1001.84
2022-08-28T01:43:13.587Z,1001.83
2022-08-28T01:44:13.728Z,1001.84
2022-08-28T01:45:13.004Z,1001.87
2022-08-28T01:46:13.123Z,1001.88
2022-08-28T01:47:13.158Z,1001.87
2022-08-28T01:48:13.272Z,1001.88
2022-08-28T01:49:13.274Z,1001.87
2022-08-28T01:50:13.421Z,1001.89
2022-08-28T01:51:13.562Z,1001.90
2022-08-28T01:52:13.425Z,1001.94
2022-08-28T01:53:13.209Z,1001.93
2022-08-28T01:54:13.108Z,1001.91
2022-08-28T01:55:13.130Z,1001.92
2022-08-28T01:56:13.290Z,1001.94
2022-08-28T01:57:13.320Z,1001.92
2022-08-28T01:58:13.994Z,1001.90
2022-08-28T01:59:14.532Z,1001.96
2022-08-28T02:00:13.519Z,1001.94
2022-08-28T02:01:13.711Z,1001.95
2022-08-28T02:02:14.021Z,1001.98
2022-08-28T02:03:12.927Z,1001.98
2022-08-28T02:04:12.987Z,1001.99
2022-08-28T02:05:13.138Z,1001.97
2022-08-28T02:06:12.998Z,1001.98
2022-08-28T02:07:13.262Z,1002.00
2022-08-28T02:08:13.322Z,1001.94
2022-08-28T02:09:14.237Z,1001.94
2022-08-28T02:10:12.769Z,1001.97
2022-08-28T02:11:13.875Z,1001.95
2022-08-28T02:12:14.110Z,1001.98
2022-08-28T02:13:13.158Z,1001.96
2022-08-28T02:14:13.079Z,1001.96
2022-08-28T02:15:13.442Z,1001.96
2022-08-28T02:16:13.448Z,1001.95
2022-08-28T02:17:13.722Z,1001.96
2022-08-28T02:18:14.047Z,1001.95
2022-08-28T02:19:13.364Z,1001.93
2022-08-28T02:20:13.241Z,1001.96
2022-08-28T02:21:13.512Z,1001.97
2022-08-28T02:22:13.588Z,1001.99
2022-08-28T02:23:13.914Z,1002.00
2022-08-28T02:24:13.045Z,1002.02
2022-08-28T02:25:12.921Z,1002.04
2022-08-28T02:26:12.904Z,1002.05
2022-08-28T02:27:12.960Z,1002.09
2022-08-28T02:28:13.440Z,1002.08
2022-08-28T02:29:13.434Z,1002.07
2022-08-28T02:30:13.295Z,1002.08
2022-08-28T02:31:13.241Z,1002.08
2022-08-28T02:32:13.144Z,1002.07
2022-08-28T02:33:13.079Z,1002.05
2022-08-28T02:34:12.918Z,1002.07
2022-08-28T02:35:12.689Z,1002.05
2022-08-28T02:36:13.572Z,1002.05
2022-08-28T02:37:13.656Z,1002.10
2022-08-28T02:38:13.719Z,1002.06
2022-08-28T02:39:13.685Z,1002.10
2022-08-28T02:40:13.600Z,1002.10
2022-08-28T02:41:13.821Z,1002.12
2022-08-28T02:42:14.059Z,1002.13
2022-08-28T02:43:13.110Z,1002.09
2022-08-28T02:44:12.957Z,1002.09
2022-08-28T02:45:13.180Z,1002.14
2022-08-28T02:46:13.095Z,1002.12
2022-08-28T02:47:13.123Z,1002.14
2022-08-28T02:48:17.397Z,1002.12
2022-08-28T02:49:13.720Z,1002.12
2022-08-28T02:50:13.742Z,1002.14
2022-08-28T02:51:13.887Z,1002.16
2022-08-28T02:52:13.752Z,1002.18
2022-08-28T02:53:13.932Z,1002.19
2022-08-28T02:54:13.081Z,1002.20
2022-08-28T02:55:14.006Z,1002.22
2022-08-28T02:56:13.156Z,1002.24
2022-08-28T02:57:13.315Z,1002.25
2022-08-28T02:58:13.873Z,1002.26
2022-08-28T02:59:12.894Z,1002.25
2022-08-28T03:00:12.747Z,1002.24
2022-08-28T03:01:13.659Z,1002.27
2022-08-28T03:02:13.824Z,1002.29
2022-08-28T03:03:13.733Z,1002.26
2022-08-28T03:04:13.842Z,1002.28
2022-08-28T03:05:14.151Z,1002.27
2022-08-28T03:06:13.097Z,1002.28
2022-08-28T03:07:12.923Z,1002.29
2022-08-28T03:08:13.190Z,1002.25
2022-08-28T03:09:13.394Z,1002.31
2022-08-28T03:10:13.374Z,1002.31
2022-08-28T03:11:13.232Z,1002.30
2022-08-28T03:12:13.269Z,1002.31
2022-08-28T03:13:13.834Z,1002.33
2022-08-28T03:14:13.282Z,1002.33
2022-08-28T03:15:13.262Z,1002.30
2022-08-28T03:16:13.628Z,1002.27
2022-08-28T03:17:13.753Z,1002.28
2022-08-28T03:18:15.549Z,1002.27
2022-08-28T03:19:13.020Z,1002.26
2022-08-28T03:20:13.188Z,1002.24
2022-08-28T03:21:13.222Z,1002.24
2022-08-28T03:22:13.130Z,1002.27
2022-08-28T03:23:13.235Z,1002.27
2022-08-28T03:24:15.634Z,1002.26
2022-08-28T03:25:13.764Z,1002.26
2022-08-28T03:26:13.638Z,1002.24
2022-08-28T03:27:13.585Z,1002.25
2022-08-28T03:28:13.642Z,1002.27
2022-08-28T03:29:13.587Z,1002.28
2022-08-28T03:30:13.658Z,1002.28
2022-08-28T03:31:14.107Z,1002.24
2022-08-28T03:32:12.962Z,1002.21
2022-08-28T03:33:12.865Z,1002.24
2022-08-28T03:34:14.136Z,1002.23
2022-08-28T03:35:13.050Z,1002.20
2022-08-28T03:36:13.437Z,1002.20
2022-08-28T03:37:13.459Z,1002.20
2022-08-28T03:38:13.483Z,1002.23
2022-08-28T03:39:13.966Z,1002.18
2022-08-28T03:40:12.976Z,1002.19
2022-08-28T03:41:13.298Z,1002.20
2022-08-28T03:42:13.358Z,1002.20
2022-08-28T03:43:13.775Z,1002.19
2022-08-28T03:44:13.694Z,1002.21
2022-08-28T03:45:13.598Z,1002.18
2022-08-28T03:46:13.495Z,1002.21
2022-08-28T03:47:13.393Z,1002.18
2022-08-28T03:48:13.602Z,1002.18
2022-08-28T03:49:13.503Z,1002.21
2022-08-28T03:50:13.417Z,1002.18
2022-08-28T03:51:13.461Z,1002.22
2022-08-28T03:52:13.833Z,1002.22
2022-08-28T03:53:13.688Z,1002.22
2022-08-28T03:54:14.063Z,1002.23
2022-08-28T03:55:13.492Z,1002.25
2022-08-28T03:56:13.731Z,1002.28
2022-08-28T03:57:13.973Z,1002.30
2022-08-28T03:58:18.777Z,1002.28
2022-08-28T03:59:13.486Z,1002.27
2022-08-28T04:00:13.582Z,1002.31
2022-08-28T04:01:13.687Z,1002.31
2022-08-28T04:02:13.693Z,1002.33
2022-08-28T04:03:13.947Z,1002.33
2022-08-28T04:04:12.929Z,1002.34
2022-08-28T04:05:13.044Z,1002.33
2022-08-28T04:06:13.486Z,1002.30
2022-08-28T04:07:13.907Z,1002.32
2022-08-28T04:08:12.885Z,1002.31
2022-08-28T04:09:12.806Z,1002.28
2022-08-28T04:10:13.896Z,1002.33
2022-08-28T04:11:12.805Z,1002.27
2022-08-28T04:12:13.666Z,1002.28
2022-08-28T04:13:13.671Z,1002.27
2022-08-28T04:14:14.177Z,1002.30
2022-08-28T04:15:14.342Z,1002.29
2022-08-28T04:16:13.403Z,1002.31
2022-08-28T04:17:13.411Z,1002.32
2022-08-28T04:18:13.573Z,1002.30
2022-08-28T04:19:14.271Z,1002.31
2022-08-28T04:20:18.200Z,1002.32
2022-08-28T04:21:13.366Z,1002.29
2022-08-28T04:22:13.502Z,1002.33
2022-08-28T04:23:13.370Z,1002.33
2022-08-28T04:24:13.306Z,1002.32
2022-08-28T04:25:13.519Z,1002.33
2022-08-28T04:26:13.665Z,1002.34
2022-08-28T04:27:13.729Z,1002.36
2022-08-28T04:28:13.971Z,1002.36
2022-08-28T04:29:12.949Z,1002.37
2022-08-28T04:30:13.004Z,1002.35
2022-08-28T04:31:12.854Z,1002.35
2022-08-28T04:32:14.031Z,1002.35
2022-08-28T04:33:12.920Z,1002.35
2022-08-28T04:34:13.043Z,1002.34
2022-08-28T04:35:12.945Z,1002.31
2022-08-28T04:36:13.116Z,1002.34
2022-08-28T04:37:13.383Z,1002.34
2022-08-28T04:38:13.498Z,1002.33
2022-08-28T04:39:13.495Z,1002.38
2022-08-28T04:40:13.451Z,1002.40
2022-08-28T04:41:13.293Z,1002.38
2022-08-28T04:42:13.323Z,1002.35
2022-08-28T04:43:13.208Z,1002.39
2022-08-28T04:44:13.214Z,1002.42
2022-08-28T04:45:13.399Z,1002.40
2022-08-28T04:46:13.711Z,1002.39
2022-08-28T04:47:13.923Z,1002.44
2022-08-28T04:48:13.796Z,1002.42
2022-08-28T04:49:13.388Z,1002.38
2022-08-28T04:50:13.579Z,1002.40
2022-08-28T04:51:13.635Z,1002.38
2022-08-28T04:52:15.389Z,1002.41
2022-08-28T04:53:13.703Z,1002.42
2022-08-28T04:54:13.644Z,1002.42
2022-08-28T04:55:13.718Z,1002.41
2022-08-28T04:56:13.556Z,1002.41
2022-08-28T04:57:13.723Z,1002.45
2022-08-28T04:58:13.753Z,1002.42
2022-08-28T04:59:13.713Z,1002.43
2022-08-28T05:00:13.822Z,1002.46
2022-08-28T05:01:13.976Z,1002.49
2022-08-28T05:02:13.179Z,1002.47
2022-08-28T05:03:13.079Z,1002.49
2022-08-28T05:04:12.981Z,1002.52
2022-08-28T05:05:13.106Z,1002.51
2022-08-28T05:06:13.131Z,1002.52
2022-08-28T05:07:13.318Z,1002.54
2022-08-28T05:08:13.436Z,1002.56
2022-08-28T05:09:13.475Z,1002.58
2022-08-28T05:10:13.763Z,1002.56
2022-08-28T05:11:34.408Z,1002.58
2022-08-28T05:12:13.877Z,1002.59
2022-08-28T05:13:13.751Z,1002.58
2022-08-28T05:14:16.126Z,1002.56
2022-08-28T05:15:13.489Z,1002.58
2022-08-28T05:16:13.474Z,1002.54
2022-08-28T05:17:13.462Z,1002.59
2022-08-28T05:18:13.593Z,1002.60
2022-08-28T05:19:13.622Z,1002.60
2022-08-28T05:20:13.470Z,1002.62
2022-08-28T05:21:14.461Z,1002.67
2022-08-28T05:22:14.131Z,1002.68
2022-08-28T05:23:13.116Z,1002.65
2022-08-28T05:24:13.786Z,1002.67
2022-08-28T05:25:13.893Z,1002.70
2022-08-28T05:26:12.859Z,1002.69
2022-08-28T05:27:14.097Z,1002.70
2022-08-28T05:28:13.099Z,1002.71
2022-08-28T05:29:13.110Z,1002.73
2022-08-28T05:30:13.167Z,1002.75
2022-08-28T05:31:13.361Z,1002.77
2022-08-28T05:32:13.334Z,1002.78
2022-08-28T05:33:13.453Z,1002.78
2022-08-28T05:34:13.296Z,1002.79
2022-08-28T05:35:13.203Z,1002.85
2022-08-28T05:36:13.084Z,1002.83
2022-08-28T05:37:17.666Z,1002.82
2022-08-28T05:38:13.578Z,1002.83
2022-08-28T05:39:13.619Z,1002.84
2022-08-28T05:40:13.664Z,1002.81
2022-08-28T05:41:13.742Z,1002.85
2022-08-28T05:42:14.625Z,1002.83
2022-08-28T05:43:13.656Z,1002.84
2022-08-28T05:44:13.681Z,1002.82
2022-08-28T05:45:13.586Z,1002.83
2022-08-28T05:46:13.525Z,1002.86
2022-08-28T05:47:13.644Z,1002.89
2022-08-28T05:48:14.251Z,1002.86
2022-08-28T05:49:13.377Z,1002.88
2022-08-28T05:50:13.329Z,1002.89
2022-08-28T05:51:13.289Z,1002.95
2022-08-28T05:52:13.236Z,1002.94
2022-08-28T05:53:13.096Z,1002.90
2022-08-28T05:54:13.330Z,1002.91
2022-08-28T05:55:13.515Z,1002.90
2022-08-28T05:56:13.679Z,1002.88
2022-08-28T05:57:13.539Z,1002.88
2022-08-28T05:58:13.939Z,1002.94
2022-08-28T05:59:13.559Z,1002.90
2022-08-28T06:00:13.450Z,1002.97
2022-08-28T06:01:31.764Z,1003.01
2022-08-28T06:02:13.830Z,1002.93
2022-08-28T06:03:14.110Z,1002.97
2022-08-28T06:04:13.058Z,1003.00
2022-08-28T06:05:13.331Z,1002.96
2022-08-28T06:06:14.223Z,1003.00
2022-08-28T06:07:13.098Z,1003.04
2022-08-28T06:08:13.366Z,1002.99
2022-08-28T06:09:13.551Z,1003.00
2022-08-28T06:10:13.441Z,1003.01
2022-08-28T06:11:13.714Z,1003.06
2022-08-28T06:12:18.703Z,1003.01
2022-08-28T06:13:16.326Z,1003.08
2022-08-28T06:14:13.601Z,1003.04
2022-08-28T06:15:13.770Z,1003.02
2022-08-28T06:16:14.155Z,1003.07
2022-08-28T06:17:13.158Z,1003.03
2022-08-28T06:18:13.117Z,1003.03
2022-08-28T06:19:14.068Z,1003.05
2022-08-28T06:20:13.189Z,1003.11
2022-08-28T06:21:13.101Z,1003.08
2022-08-28T06:22:13.233Z,1003.04
2022-08-28T06:23:15.417Z,1003.05
2022-08-28T06:24:13.100Z,1003.10
2022-08-28T06:25:13.229Z,1003.12
2022-08-28T06:26:13.173Z,1003.13
2022-08-28T06:27:18.144Z,1003.17
2022-08-28T06:28:13.295Z,1003.13
2022-08-28T06:29:13.621Z,1003.15
2022-08-28T06:30:13.637Z,1003.13
2022-08-28T06:31:23.637Z,1003.18
2022-08-28T06:32:13.608Z,1003.19
2022-08-28T06:33:14.395Z,1003.20
2022-08-28T06:34:13.528Z,1003.23
2022-08-28T06:35:13.418Z,1003.23
2022-08-28T06:36:13.577Z,1003.20
2022-08-28T06:37:14.079Z,1003.20
2022-08-28T06:38:13.308Z,1003.25
2022-08-28T06:39:13.745Z,1003.23
2022-08-28T06:40:13.784Z,1003.24
2022-08-28T06:41:13.964Z,1003.23
2022-08-28T06:42:12.895Z,1003.19
2022-08-28T06:43:12.764Z,1003.20
2022-08-28T06:44:14.255Z,1003.19
2022-08-28T06:45:13.207Z,1003.22
2022-08-28T06:46:13.473Z,1003.26
2022-08-28T06:47:13.877Z,1003.22
2022-08-28T06:48:13.919Z,1003.28
2022-08-28T06:49:13.030Z,1003.27
2022-08-28T06:50:13.099Z,1003.29
2022-08-28T06:51:13.140Z,1003.29
2022-08-28T06:52:28.992Z,1003.28
2022-08-28T06:53:12.796Z,1003.26
2022-08-28T06:54:17.300Z,1003.32
2022-08-28T06:55:13.472Z,1003.30
2022-08-28T06:56:13.638Z,1003.28
2022-08-28T06:57:13.511Z,1003.28
2022-08-28T06:58:13.601Z,1003.28
2022-08-28T06:59:13.914Z,1003.32
2022-08-28T07:00:13.103Z,1003.31
2022-08-28T07:01:14.371Z,1003.30
2022-08-28T07:02:13.579Z,1003.26
2022-08-28T07:03:13.617Z,1003.30
2022-08-28T07:04:13.994Z,1003.29
2022-08-28T07:05:14.533Z,1003.34
2022-08-28T07:06:14.399Z,1003.30
2022-08-28T07:07:31.352Z,1003.35
2022-08-28T07:08:13.264Z,1003.31
2022-08-28T07:09:13.365Z,1003.33
2022-08-28T07:10:13.602Z,1003.35
2022-08-28T07:11:13.421Z,1003.36
2022-08-28T07:12:13.639Z,1003.26
2022-08-28T07:13:13.835Z,1003.34
2022-08-28T07:14:13.670Z,1003.28
2022-08-28T07:15:13.564Z,1003.26
2022-08-28T07:16:14.063Z,1003.33
2022-08-28T07:17:13.473Z,1003.33
2022-08-28T07:18:13.862Z,1003.33
2022-08-28T07:20:28.958Z,1003.37
2022-08-28T07:21:13.033Z,1003.35
2022-08-28T07:22:13.051Z,1003.40
2022-08-28T07:23:14.362Z,1003.37
2022-08-28T07:24:18.520Z,1003.33
2022-08-28T07:25:13.545Z,1003.32
2022-08-28T07:26:13.655Z,1003.36
2022-08-28T07:27:18.289Z,1003.38
2022-08-28T07:28:13.182Z,1003.38
2022-08-28T07:29:13.332Z,1003.38
2022-08-28T07:30:13.421Z,1003.38
2022-08-28T07:31:13.430Z,1003.36
2022-08-28T07:32:13.502Z,1003.41
2022-08-28T07:33:13.456Z,1003.39
2022-08-28T07:34:14.964Z,1003.40
2022-08-28T07:35:12.881Z,1003.46
2022-08-28T07:36:15.909Z,1003.40
2022-08-28T07:37:15.429Z,1003.38
2022-08-28T07:38:13.869Z,1003.39
2022-08-28T07:39:14.546Z,1003.39
2022-08-28T07:40:13.659Z,1003.38
2022-08-28T07:41:13.883Z,1003.42
2022-08-28T07:42:14.351Z,1003.40
2022-08-28T07:43:15.207Z,1003.39
2022-08-28T07:44:14.469Z,1003.36
2022-08-28T07:45:13.890Z,1003.41
2022-08-28T07:46:13.182Z,1003.42
2022-08-28T07:47:14.518Z,1003.44
2022-08-28T07:48:14.169Z,1003.45
2022-08-28T07:49:13.717Z,1003.48
2022-08-28T07:50:13.821Z,1003.51
2022-08-28T07:51:14.130Z,1003.51
2022-08-28T07:52:13.366Z,1003.55
2022-08-28T07:53:13.340Z,1003.56
2022-08-28T07:54:15.591Z,1003.54
2022-08-28T07:55:28.121Z,1003.55
2022-08-28T07:56:15.091Z,1003.53
2022-08-28T07:57:13.089Z,1003.61
2022-08-28T07:58:13.124Z,1003.62
2022-08-28T07:59:16.691Z,1003.63
2022-08-28T08:00:13.199Z,1003.67
2022-08-28T08:01:13.043Z,1003.66
2022-08-28T08:02:12.914Z,1003.64
2022-08-28T08:03:13.897Z,1003.67
2022-08-28T08:04:12.840Z,1003.69
2022-08-28T08:05:14.438Z,1003.66
2022-08-28T08:06:13.673Z,1003.69
2022-08-28T08:07:14.463Z,1003.71
2022-08-28T08:08:13.774Z,1003.67
2022-08-28T08:09:13.071Z,1003.67
2022-08-28T08:10:13.281Z,1003.73
2022-08-28T08:11:13.960Z,1003.68
2022-08-28T08:12:13.665Z,1003.65
2022-08-28T08:13:13.801Z,1003.71
2022-08-28T08:14:13.161Z,1003.71
2022-08-28T08:15:12.982Z,1003.68
2022-08-28T08:16:12.847Z,1003.72
2022-08-28T08:17:13.971Z,1003.73
2022-08-28T08:18:14.101Z,1003.75
2022-08-28T08:19:13.007Z,1003.74
2022-08-28T08:20:13.119Z,1003.72
2022-08-28T08:21:13.519Z,1003.77
2022-08-28T08:22:13.630Z,1003.77
2022-08-28T08:23:13.623Z,1003.82
2022-08-28T08:24:17.964Z,1003.77
2022-08-28T08:25:13.186Z,1003.83
2022-08-28T08:26:13.370Z,1003.80
2022-08-28T08:27:13.474Z,1003.88
2022-08-28T08:28:13.693Z,1003.81
2022-08-28T08:29:13.983Z,1003.82
2022-08-28T08:30:12.753Z,1003.80
2022-08-28T08:31:13.940Z,1003.85
2022-08-28T08:32:12.974Z,1003.84
2022-08-28T08:33:12.889Z,1003.81
2022-08-28T08:34:13.878Z,1003.74
2022-08-28T08:35:13.645Z,1003.77
2022-08-28T08:36:13.820Z,1003.81
2022-08-28T08:37:13.650Z,1003.76
2022-08-28T08:38:13.570Z,1003.72
2022-08-28T08:39:13.536Z,1003.78
2022-08-28T08:40:12.914Z,1003.80
2022-08-28T08:41:12.762Z,1003.73
2022-08-28T08:42:13.758Z,1003.73
2022-08-28T08:43:13.652Z,1003.79
2022-08-28T08:44:13.751Z,1003.75
2022-08-28T08:45:13.840Z,1003.77
2022-08-28T08:46:14.054Z,1003.76
2022-08-28T08:47:14.927Z,1003.78
2022-08-28T08:48:13.461Z,1003.78
2022-08-28T08:49:13.635Z,1003.81
2022-08-28T08:50:13.694Z,1003.83
2022-08-28T08:51:13.956Z,1003.83
2022-08-28T08:52:12.989Z,1003.82
2022-08-28T08:53:13.144Z,1003.81
2022-08-28T08:54:13.011Z,1003.80
2022-08-28T08:55:12.919Z,1003.76
2022-08-28T08:56:12.988Z,1003.75
2022-08-28T08:57:12.997Z,1003.76
2022-08-28T08:58:13.316Z,1003.84
2022-08-28T08:59:13.457Z,1003.81
2022-08-28T09:00:15.948Z,1003.82
2022-08-28T09:01:13.270Z,1003.83
2022-08-28T09:02:14.814Z,1003.86
2022-08-28T09:03:13.769Z,1003.88
2022-08-28T09:04:15.719Z,1003.86
2022-08-28T09:05:13.007Z,1003.85
2022-08-28T09:06:15.589Z,1003.82
2022-08-28T09:07:14.151Z,1003.84
2022-08-28T09:08:15.167Z,1003.81
2022-08-28T09:09:13.545Z,1003.84
2022-08-28T09:10:13.615Z,1003.87
2022-08-28T09:11:13.660Z,1003.89
2022-08-28T09:12:14.027Z,1003.85
2022-08-28T09:13:13.363Z,1003.84
2022-08-28T09:14:13.269Z,1003.88
2022-08-28T09:15:13.257Z,1003.86
2022-08-28T09:16:13.482Z,1003.89
2022-08-28T09:17:13.486Z,1003.84
2022-08-28T09:18:13.449Z,1003.85
2022-08-28T09:19:15.632Z,1003.86
2022-08-28T09:20:13.903Z,1003.90
2022-08-28T09:21:13.120Z,1003.91
2022-08-28T09:22:13.083Z,1003.91
2022-08-28T09:23:14.034Z,1003.94
2022-08-28T09:24:13.053Z,1003.96
2022-08-28T09:25:13.134Z,1003.97
2022-08-28T09:26:13.565Z,1003.95
2022-08-28T09:27:14.501Z,1003.84
2022-08-28T09:28:13.961Z,1003.89
2022-08-28T09:29:13.032Z,1003.93
2022-08-28T09:30:12.972Z,1004.02
2022-08-28T09:31:13.227Z,1003.95
2022-08-28T09:32:13.347Z,1003.96
2022-08-28T09:33:13.292Z,1003.92
2022-08-28T09:34:13.240Z,1003.97
2022-08-28T09:35:13.204Z,1003.94
2022-08-28T09:36:13.180Z,1003.96
2022-08-28T09:37:13.897Z,1003.97
2022-08-28T09:38:13.442Z,1003.97
2022-08-28T09:39:13.647Z,1003.90
2022-08-28T09:40:13.685Z,1003.99
2022-08-28T09:41:15.202Z,1003.95
2022-08-28T09:42:13.292Z,1003.95
2022-08-28T09:43:13.629Z,1003.90
2022-08-28T09:44:13.847Z,1003.92
2022-08-28T09:45:14.153Z,1003.93
2022-08-28T09:46:14.310Z,1003.98
2022-08-28T09:47:13.369Z,1003.95
2022-08-28T09:48:13.351Z,1003.95
2022-08-28T09:49:13.720Z,1003.98
2022-08-28T09:50:13.681Z,1003.92
2022-08-28T09:51:13.970Z,1003.97
2022-08-28T09:52:13.951Z,1003.98
2022-08-28T09:53:12.958Z,1003.94
2022-08-28T09:54:12.832Z,1003.96
2022-08-28T09:55:13.846Z,1003.95
2022-08-28T09:56:13.725Z,1003.97
2022-08-28T09:57:13.579Z,1003.94
2022-08-28T09:58:13.975Z,1003.90
2022-08-28T09:59:13.894Z,1003.95
2022-08-28T10:00:13.981Z,1003.96
2022-08-28T10:01:12.965Z,1003.97
2022-08-28T10:02:13.259Z,1003.93
2022-08-28T10:03:14.406Z,1003.94
2022-08-28T10:04:13.380Z,1003.93
2022-08-28T10:05:14.494Z,1003.97
2022-08-28T10:06:15.002Z,1003.96
2022-08-28T10:07:12.836Z,1003.97
2022-08-28T10:08:14.023Z,1004.04
2022-08-28T10:09:13.591Z,1004.03
2022-08-28T10:10:13.662Z,1004.03
2022-08-28T10:11:13.234Z,1004.00
2022-08-28T10:12:13.145Z,1004.00
2022-08-28T10:13:13.136Z,1004.01
2022-08-28T10:14:13.114Z,1003.95
2022-08-28T10:15:13.275Z,1003.94
2022-08-28T10:16:13.386Z,1003.97
2022-08-28T10:17:13.631Z,1003.90
2022-08-28T10:18:15.022Z,1003.90
2022-08-28T10:19:13.517Z,1003.90
2022-08-28T10:20:13.402Z,1003.93
2022-08-28T10:21:13.287Z,1003.89
2022-08-28T10:22:15.014Z,1003.98
2022-08-28T10:23:17.673Z,1003.91
2022-08-28T10:24:14.209Z,1003.95
2022-08-28T10:25:13.001Z,1003.99
2022-08-28T10:26:14.570Z,1003.94
2022-08-28T10:27:13.623Z,1003.91
2022-08-28T10:28:13.592Z,1003.82
2022-08-28T10:29:13.680Z,1003.85
2022-08-28T10:30:15.127Z,1003.90
2022-08-28T10:31:13.199Z,1003.85
2022-08-28T10:32:13.398Z,1003.88
2022-08-28T10:33:15.118Z,1003.87
2022-08-28T10:34:13.043Z,1003.85
2022-08-28T10:35:14.067Z,1003.85
2022-08-28T10:36:34.167Z,1003.85
2022-08-28T10:37:14.774Z,1003.87
2022-08-28T10:38:13.959Z,1003.88
2022-08-28T10:39:13.132Z,1003.85
2022-08-28T10:40:12.985Z,1003.88
2022-08-28T10:41:12.902Z,1003.88
2022-08-28T10:42:13.741Z,1003.86
2022-08-28T10:43:13.885Z,1003.90
2022-08-28T10:44:13.422Z,1003.90
2022-08-28T10:45:13.392Z,1003.84
2022-08-28T10:46:15.176Z,1003.83
2022-08-28T10:47:14.128Z,1003.85
2022-08-28T10:48:13.338Z,1003.78
2022-08-28T10:49:29.217Z,1003.84
2022-08-28T10:50:14.641Z,1003.88
2022-08-28T10:51:13.825Z,1003.92
2022-08-28T10:52:14.202Z,1003.88
2022-08-28T10:53:14.525Z,1003.82
2022-08-28T10:54:13.807Z,1003.82
2022-08-28T10:55:13.636Z,1003.89
2022-08-28T10:56:14.843Z,1003.90
2022-08-28T10:57:13.629Z,1003.87
2022-08-28T10:58:24.798Z,1003.92
2022-08-28T10:59:13.613Z,1003.94
2022-08-28T11:00:21.782Z,1003.87
2022-08-28T11:01:15.677Z,1003.89
2022-08-28T11:02:15.663Z,1003.84
2022-08-28T11:03:33.174Z,1003.84
2022-08-28T11:04:14.579Z,1003.86
2022-08-28T11:05:18.708Z,1003.88
2022-08-28T11:06:15.738Z,1003.95
2022-08-28T11:07:13.664Z,1003.89
2022-08-28T11:08:16.414Z,1003.89
2022-08-28T11:09:15.194Z,1003.85
2022-08-28T11:10:20.925Z,1003.82
2022-08-28T11:11:14.237Z,1003.88
2022-08-28T11:12:15.659Z,1003.94
2022-08-28T11:13:18.464Z,1003.82
2022-08-28T11:14:14.679Z,1003.92
2022-08-28T11:15:14.769Z,1003.89
2022-08-28T11:16:15.927Z,1003.88
2022-08-28T11:17:16.504Z,1003.88
2022-08-28T11:18:17.714Z,1003.88
2022-08-28T11:19:16.902Z,1003.93
2022-08-28T11:20:16.857Z,1003.93
2022-08-28T11:21:17.249Z,1003.91
2022-08-28T11:22:16.447Z,1003.85
2022-08-28T11:23:17.297Z,1003.88
2022-08-28T11:24:17.585Z,1003.84
2022-08-28T11:25:16.019Z,1003.90
2022-08-28T11:26:16.970Z,1003.92
2022-08-28T11:27:17.776Z,1003.91
2022-08-28T11:28:14.323Z,1003.85
2022-08-28T11:29:17.848Z,1003.94
2022-08-28T11:30:14.579Z,1003.86
2022-08-28T11:31:19.106Z,1003.90
2022-08-28T11:32:17.473Z,1003.87
2022-08-28T11:33:18.369Z,1003.86
2022-08-28T11:34:17.174Z,1003.89
2022-08-28T11:35:14.685Z,1003.93
2022-08-28T11:36:16.478Z,1003.94
2022-08-28T11:37:18.264Z,1003.89
2022-08-28T11:38:18.418Z,1003.94
2022-08-28T11:39:13.009Z,1003.96
2022-08-28T11:40:14.771Z,1003.95
2022-08-28T11:41:15.769Z,1004.00
2022-08-28T11:42:17.109Z,1003.95
2022-08-28T11:43:17.160Z,1003.93
2022-08-28T11:44:16.204Z,1003.85
2022-08-28T11:45:16.252Z,1003.85
2022-08-28T11:46:22.187Z,1003.88
2022-08-28T11:47:16.326Z,1003.87
2022-08-28T11:48:16.552Z,1003.84
2022-08-28T11:49:14.474Z,1003.85
2022-08-28T11:50:14.884Z,1003.79
2022-08-28T11:51:16.441Z,1003.81
2022-08-28T11:52:13.469Z,1003.78
2022-08-28T11:53:20.790Z,1003.79
2022-08-28T11:54:16.288Z,1003.86
2022-08-28T11:55:13.088Z,1003.88
2022-08-28T11:56:21.777Z,1003.92
2022-08-28T11:57:14.188Z,1003.95
2022-08-28T11:58:19.399Z,1003.93
2022-08-28T11:59:19.395Z,1003.89
2022-08-28T12:00:17.539Z,1003.93
2022-08-28T12:01:14.478Z,1003.90
2022-08-28T12:02:16.885Z,1003.97
2022-08-28T12:03:16.262Z,1003.88
2022-08-28T12:04:15.507Z,1003.92
2022-08-28T12:05:16.479Z,1003.90
2022-08-28T12:06:17.474Z,1003.88